createdAt,value
2022-07-29T00:00:57.173Z,3.25
2022-07-29T00:03:43.332Z,3.10
2022-07-29T00:06:29.517Z,3.05
2022-07-29T00:09:15.558Z,3.72
2022-07-29T00:12:02.207Z,3.47
2022-07-29T00:14:48.779Z,4.00
2022-07-29T00:17:35.123Z,3.17
2022-07-29T00:20:21.291Z,3.30
2022-07-29T00:23:07.995Z,3.15
2022-07-29T00:25:59.983Z,4.55
2022-07-29T00:28:45.925Z,2.95
2022-07-29T00:31:32.113Z,3.22
2022-07-29T00:34:37.536Z,3.08
2022-07-29T00:37:23.539Z,2.95
2022-07-29T00:40:10.480Z,3.67
2022-07-29T00:42:56.351Z,3.70
2022-07-29T00:45:42.807Z,4.28
2022-07-29T00:48:28.849Z,3.20
2022-07-29T00:51:15.105Z,4.05
2022-07-29T00:54:01.286Z,3.95
2022-07-29T00:56:47.743Z,4.22
2022-07-29T00:59:34.722Z,4.90
2022-07-29T01:02:21.874Z,5.80
2022-07-29T01:05:08.787Z,4.72
2022-07-29T01:07:56.115Z,5.35
2022-07-29T01:10:43.862Z,4.18
2022-07-29T01:13:31.999Z,3.17
2022-07-29T01:16:33.782Z,2.67
2022-07-29T01:19:47.338Z,2.60
2022-07-29T01:22:42.693Z,2.80
2022-07-29T01:25:40.178Z,2.53
2022-07-29T01:28:35.302Z,2.78
2022-07-29T01:31:28.295Z,2.97
2022-07-29T01:34:24.706Z,2.80
2022-07-29T01:37:19.692Z,3.08
2022-07-29T01:40:08.633Z,2.88
2022-07-29T01:42:59.007Z,2.70
2022-07-29T01:45:51.236Z,2.40
2022-07-29T01:49:09.861Z,3.35
2022-07-29T01:52:01.619Z,2.70
2022-07-29T01:54:59.706Z,2.78
2022-07-29T01:57:48.912Z,2.40
2022-07-29T02:00:36.415Z,2.97
2022-07-29T02:03:23.600Z,2.63
2022-07-29T02:06:11.743Z,2.83
2022-07-29T02:08:59.534Z,2.83
2022-07-29T02:11:57.039Z,3.00
2022-07-29T02:14:48.430Z,2.50
2022-07-29T02:17:41.874Z,2.65
2022-07-29T02:20:29.867Z,3.13
2022-07-29T02:23:24.865Z,3.42
2022-07-29T02:26:11.331Z,2.90
2022-07-29T02:29:00.002Z,2.80
2022-07-29T02:31:48.230Z,3.03
2022-07-29T02:34:35.905Z,2.88
2022-07-29T02:37:23.863Z,2.70
2022-07-29T02:40:12.565Z,4.50
2022-07-29T02:42:59.839Z,2.92
2022-07-29T02:45:51.824Z,2.80
2022-07-29T02:49:10.359Z,2.75
2022-07-29T02:52:02.443Z,3.30
2022-07-29T02:54:54.421Z,2.60
2022-07-29T02:58:02.411Z,3.05
2022-07-29T03:00:49.868Z,2.53
2022-07-29T03:03:38.951Z,2.88
2022-07-29T03:06:38.188Z,2.90
2022-07-29T03:09:26.339Z,3.15
2022-07-29T03:12:13.249Z,3.00
2022-07-29T03:15:00.415Z,3.05
2022-07-29T03:17:47.784Z,2.78
2022-07-29T03:20:34.185Z,2.90
2022-07-29T03:23:23.575Z,3.33
2022-07-29T03:26:09.381Z,3.42
2022-07-29T03:28:55.942Z,3.70
2022-07-29T03:31:41.966Z,3.58
2022-07-29T03:34:29.824Z,3.58
2022-07-29T03:37:15.828Z,3.97
2022-07-29T03:40:04.381Z,3.97
2022-07-29T03:42:52.635Z,3.17
2022-07-29T03:45:41.715Z,3.20
2022-07-29T03:48:30.301Z,3.03
2022-07-29T03:51:16.795Z,4.47
2022-07-29T03:54:09.882Z,4.70
2022-07-29T03:57:00.954Z,3.08
2022-07-29T03:59:48.296Z,2.92
2022-07-29T04:02:34.890Z,3.13
2022-07-29T04:05:21.228Z,3.53
2022-07-29T04:08:07.511Z,3.20
2022-07-29T04:10:54.005Z,3.30
2022-07-29T04:13:39.918Z,3.35
2022-07-29T04:16:25.864Z,3.55
2022-07-29T04:19:12.278Z,3.75
2022-07-29T04:22:00.415Z,3.40
2022-07-29T04:24:46.280Z,4.03
2022-07-29T04:27:32.998Z,3.58
2022-07-29T04:30:19.501Z,4.60
2022-07-29T04:33:07.874Z,3.75
2022-07-29T04:35:54.920Z,3.47
2022-07-29T04:38:41.840Z,3.38
2022-07-29T04:41:32.787Z,3.67
2022-07-29T04:44:20.124Z,3.20
2022-07-29T04:47:09.693Z,3.60
2022-07-29T04:49:57.146Z,3.15
2022-07-29T04:52:44.533Z,3.40
2022-07-29T04:55:33.940Z,3.63
2022-07-29T04:58:19.857Z,3.22
2022-07-29T05:01:05.891Z,3.95
2022-07-29T05:03:54.862Z,3.85
2022-07-29T05:06:43.080Z,3.80
2022-07-29T05:09:28.942Z,4.30
2022-07-29T05:12:14.982Z,3.30
2022-07-29T05:15:00.885Z,3.72
2022-07-29T05:17:46.977Z,3.50
2022-07-29T05:20:33.940Z,4.00
2022-07-29T05:23:20.690Z,4.03
2022-07-29T05:26:07.051Z,3.90
2022-07-29T05:28:53.432Z,4.28
2022-07-29T05:31:39.580Z,3.90
2022-07-29T05:34:26.067Z,3.35
2022-07-29T05:37:14.321Z,4.03
2022-07-29T05:40:00.707Z,4.35
2022-07-29T05:42:47.274Z,3.58
2022-07-29T05:45:33.304Z,4.10
2022-07-29T05:48:35.380Z,3.60
2022-07-29T05:51:21.934Z,3.30
2022-07-29T05:54:08.142Z,4.10
2022-07-29T05:56:54.035Z,5.00
2022-07-29T05:59:40.172Z,4.60
2022-07-29T06:02:26.152Z,4.65
2022-07-29T06:05:15.582Z,6.00
2022-07-29T06:08:04.072Z,4.63
2022-07-29T06:10:50.105Z,4.80
2022-07-29T06:13:35.960Z,4.95
2022-07-29T06:16:29.576Z,4.07
2022-07-29T06:19:16.778Z,4.25
2022-07-29T06:22:03.233Z,4.18
2022-07-29T06:24:49.184Z,4.07
2022-07-29T06:27:35.022Z,4.32
2022-07-29T06:30:22.648Z,4.95
2022-07-29T06:33:08.634Z,4.35
2022-07-29T06:35:55.094Z,4.25
2022-07-29T06:38:44.871Z,5.60
2022-07-29T06:41:36.462Z,4.70
2022-07-29T06:44:28.855Z,4.00
2022-07-29T06:47:14.941Z,4.05
2022-07-29T06:50:01.150Z,5.47
2022-07-29T06:52:47.123Z,4.38
2022-07-29T06:55:33.469Z,4.80
2022-07-29T06:58:21.381Z,4.50
2022-07-29T07:01:14.992Z,5.93
2022-07-29T07:04:01.264Z,5.13
2022-07-29T07:06:47.418Z,5.38
2022-07-29T07:09:40.118Z,4.43
2022-07-29T07:12:27.431Z,4.53
2022-07-29T07:15:13.637Z,5.20
2022-07-29T07:18:00.002Z,4.53
2022-07-29T07:20:46.158Z,5.35
2022-07-29T07:23:32.642Z,4.70
2022-07-29T07:26:18.946Z,5.35
2022-07-29T07:29:04.896Z,4.68
2022-07-29T07:31:51.068Z,4.78
2022-07-29T07:34:38.905Z,4.40
2022-07-29T07:37:25.700Z,4.47
2022-07-29T07:40:12.643Z,4.68
2022-07-29T07:43:04.820Z,4.45
2022-07-29T07:45:51.059Z,4.72
2022-07-29T07:48:37.365Z,4.30
2022-07-29T07:51:23.429Z,4.82
2022-07-29T07:54:09.519Z,4.28
2022-07-29T07:56:55.451Z,4.90
2022-07-29T07:59:42.353Z,4.28
2022-07-29T08:02:31.486Z,4.35
2022-07-29T08:05:20.252Z,4.80
2022-07-29T08:08:06.993Z,4.75
2022-07-29T08:10:55.591Z,4.97
2022-07-29T08:13:42.222Z,4.28
2022-07-29T08:16:29.389Z,3.78
2022-07-29T08:19:15.697Z,4.32
2022-07-29T08:22:01.961Z,3.58
2022-07-29T08:24:53.396Z,2.90
2022-07-29T08:27:43.738Z,3.10
2022-07-29T08:30:30.694Z,2.97
2022-07-29T08:33:16.793Z,3.70
2022-07-29T08:36:03.270Z,3.58
2022-07-29T08:38:50.613Z,3.15
2022-07-29T08:41:37.202Z,4.03
2022-07-29T08:44:30.410Z,3.65
2022-07-29T08:47:18.067Z,3.45
2022-07-29T08:50:04.482Z,2.60
2022-07-29T08:52:50.996Z,2.47
2022-07-29T08:55:37.945Z,2.90
2022-07-29T08:58:25.987Z,2.10
2022-07-29T09:01:17.119Z,2.20
2022-07-29T09:04:08.764Z,1.90
2022-07-29T09:06:58.007Z,2.33
2022-07-29T09:09:44.731Z,1.92
2022-07-29T09:12:33.753Z,2.17
2022-07-29T09:15:23.918Z,2.25
2022-07-29T09:18:20.638Z,2.40
2022-07-29T09:21:36.766Z,2.20
2022-07-29T09:24:35.450Z,3.08
2022-07-29T09:27:29.773Z,2.30
2022-07-29T09:30:15.617Z,2.03
2022-07-29T09:33:11.777Z,2.10
2022-07-29T09:36:09.172Z,1.95
2022-07-29T09:39:00.889Z,2.05
2022-07-29T09:41:53.828Z,2.42
2022-07-29T09:44:45.677Z,2.60
2022-07-29T09:47:46.098Z,2.42
2022-07-29T09:50:41.043Z,2.20
2022-07-29T09:53:38.471Z,3.22
2022-07-29T09:56:41.494Z,3.08
2022-07-29T09:59:29.141Z,2.80
2022-07-29T10:02:21.980Z,2.70
2022-07-29T10:05:21.072Z,2.70
2022-07-29T10:08:08.500Z,2.35
2022-07-29T10:11:10.916Z,2.60
2022-07-29T10:13:57.759Z,2.95
2022-07-29T10:16:44.646Z,2.50
2022-07-29T10:19:32.447Z,2.45
2022-07-29T10:22:43.597Z,2.75
2022-07-29T10:25:27.202Z,2.90
2022-07-29T10:28:16.500Z,2.70
2022-07-29T10:31:07.548Z,3.00
2022-07-29T10:34:24.837Z,2.22
2022-07-29T10:37:27.278Z,2.90
2022-07-29T10:40:45.239Z,2.00
2022-07-29T10:43:36.993Z,2.38
2022-07-29T10:46:25.696Z,2.45
2022-07-29T10:49:16.097Z,2.72
2022-07-29T10:52:13.172Z,2.55
2022-07-29T10:55:01.266Z,3.30
2022-07-29T10:58:18.022Z,2.63
2022-07-29T11:01:37.010Z,2.90
2022-07-29T11:04:47.081Z,2.60
2022-07-29T11:07:42.650Z,2.85
2022-07-29T11:10:32.674Z,2.58
2022-07-29T11:13:55.708Z,2.28
2022-07-29T11:20:42.773Z,2.00
2022-07-29T11:23:33.350Z,2.00
2022-07-29T11:26:22.948Z,2.03
2022-07-29T11:29:24.273Z,2.10
2022-07-29T11:32:22.582Z,2.03
2022-07-29T11:38:32.951Z,1.95
2022-07-29T11:41:18.866Z,2.17
2022-07-29T11:44:05.956Z,2.00
2022-07-29T11:46:55.618Z,2.10
2022-07-29T11:49:48.186Z,2.13
2022-07-29T11:52:38.262Z,1.95
2022-07-29T11:55:50.996Z,2.10
2022-07-29T11:58:38.322Z,2.30
2022-07-29T12:01:25.537Z,2.58
2022-07-29T12:04:14.863Z,2.33
2022-07-29T12:07:04.611Z,2.42
2022-07-29T12:09:56.896Z,2.50
2022-07-29T12:12:43.446Z,2.22
2022-07-29T12:15:45.586Z,2.50
2022-07-29T12:18:33.158Z,2.00
2022-07-29T12:21:19.576Z,2.38
2022-07-29T12:24:11.988Z,1.98
2022-07-29T12:27:00.207Z,2.03
2022-07-29T12:30:17.413Z,2.03
2022-07-29T12:33:12.493Z,2.17
2022-07-29T12:36:12.819Z,2.55
2022-07-29T12:39:04.778Z,2.60
2022-07-29T12:41:50.788Z,1.98
2022-07-29T12:44:51.199Z,2.05
2022-07-29T12:47:53.347Z,2.20
2022-07-29T12:51:10.006Z,2.05
2022-07-29T12:54:06.769Z,2.08
2022-07-29T12:57:00.612Z,2.15
2022-07-29T13:00:00.289Z,1.95
2022-07-29T13:02:56.547Z,1.92
2022-07-29T13:05:49.436Z,1.83
2022-07-29T13:08:38.394Z,2.50
2022-07-29T13:11:36.795Z,2.35
2022-07-29T13:14:41.228Z,2.03
2022-07-29T13:17:32.650Z,2.17
2022-07-29T13:20:19.234Z,2.22
2022-07-29T13:23:05.158Z,2.55
2022-07-29T13:25:51.194Z,2.33
2022-07-29T13:28:37.506Z,2.08
2022-07-29T13:31:23.611Z,1.90
2022-07-29T13:34:09.539Z,2.22
2022-07-29T13:36:55.775Z,2.40
2022-07-29T13:39:41.856Z,2.00
2022-07-29T13:42:38.427Z,2.25
2022-07-29T13:45:24.909Z,1.70
2022-07-29T13:48:15.028Z,2.00
2022-07-29T13:51:01.170Z,2.38
2022-07-29T13:53:47.499Z,2.10
2022-07-29T13:56:33.986Z,2.15
2022-07-29T13:59:20.371Z,1.90
2022-07-29T14:02:06.912Z,2.15
2022-07-29T14:04:54.396Z,2.35
2022-07-29T14:07:43.606Z,1.50
2022-07-29T14:10:29.700Z,2.50
2022-07-29T14:13:24.384Z,2.47
2022-07-29T14:16:11.676Z,1.95
2022-07-29T14:18:57.881Z,1.95
2022-07-29T14:21:44.365Z,2.13
2022-07-29T14:24:32.324Z,1.90
2022-07-29T14:27:18.427Z,2.40
2022-07-29T14:30:04.903Z,1.90
2022-07-29T14:32:51.151Z,1.90
2022-07-29T14:35:37.372Z,2.38
2022-07-29T14:38:23.522Z,2.00
2022-07-29T14:41:13.291Z,1.67
2022-07-29T14:44:01.552Z,2.40
2022-07-29T14:46:47.825Z,2.20
2022-07-29T14:49:36.419Z,2.08
2022-07-29T14:52:22.781Z,2.03
2022-07-29T14:55:19.880Z,2.08
2022-07-29T14:58:11.077Z,2.03
2022-07-29T15:03:51.459Z,2.08
2022-07-29T15:06:37.528Z,2.20
2022-07-29T15:09:24.298Z,2.35
2022-07-29T15:12:11.565Z,1.85
2022-07-29T15:14:57.491Z,1.95
2022-07-29T15:17:43.890Z,2.00
2022-07-29T15:20:30.622Z,2.00
2022-07-29T15:23:16.711Z,2.17
2022-07-29T15:26:03.675Z,1.83
2022-07-29T15:28:50.131Z,1.80
2022-07-29T15:31:36.563Z,1.92
2022-07-29T15:34:26.458Z,1.60
2022-07-29T15:37:12.786Z,1.85
2022-07-29T15:40:00.184Z,2.08
2022-07-29T15:42:46.411Z,2.22
2022-07-29T15:45:40.872Z,1.70
2022-07-29T15:48:27.367Z,1.73
2022-07-29T15:51:13.456Z,2.10
2022-07-29T15:54:01.539Z,2.45
2022-07-29T15:56:47.861Z,2.70
2022-07-29T15:59:34.762Z,2.55
2022-07-29T16:02:20.897Z,2.60
2022-07-29T16:05:09.407Z,3.42
2022-07-29T16:07:55.969Z,2.42
2022-07-29T16:10:42.022Z,2.08
2022-07-29T16:13:28.317Z,1.80
2022-07-29T16:16:16.812Z,2.15
2022-07-29T16:19:03.744Z,1.98
2022-07-29T16:21:50.148Z,2.38
2022-07-29T16:24:36.491Z,2.47
2022-07-29T16:27:26.977Z,2.50
2022-07-29T16:30:23.085Z,2.22
2022-07-29T16:33:09.558Z,1.90
2022-07-29T16:35:55.883Z,2.38
2022-07-29T16:38:47.275Z,2.97
2022-07-29T16:41:33.589Z,2.55
2022-07-29T16:44:19.709Z,2.50
2022-07-29T16:47:11.647Z,2.00
2022-07-29T16:50:12.597Z,1.95
2022-07-29T16:53:02.731Z,2.22
2022-07-29T16:55:48.889Z,2.75
2022-07-29T16:58:34.844Z,3.33
2022-07-29T17:01:21.428Z,2.83
2022-07-29T17:04:07.827Z,2.70
2022-07-29T17:06:55.546Z,2.10
2022-07-29T17:09:42.346Z,2.22
2022-07-29T17:12:28.762Z,2.15
2022-07-29T17:15:16.769Z,2.28
2022-07-29T17:18:03.310Z,2.72
2022-07-29T17:20:58.876Z,2.10
2022-07-29T17:23:45.661Z,2.20
2022-07-29T17:26:32.084Z,1.95
2022-07-29T17:29:18.552Z,2.20
2022-07-29T17:32:07.783Z,2.15
2022-07-29T17:34:54.685Z,2.25
2022-07-29T17:37:41.064Z,2.00
2022-07-29T17:40:27.490Z,2.35
2022-07-29T17:43:13.625Z,2.25
2022-07-29T17:45:59.718Z,1.90
2022-07-29T17:48:46.058Z,2.10
2022-07-29T17:51:32.682Z,2.22
2022-07-29T17:54:18.855Z,1.90
2022-07-29T17:57:08.277Z,2.55
2022-07-29T17:59:54.537Z,2.03
2022-07-29T18:02:41.883Z,2.70
2022-07-29T18:05:27.990Z,1.95
2022-07-29T18:08:14.465Z,2.58
2022-07-29T18:11:00.561Z,2.15
2022-07-29T18:13:47.069Z,2.08
2022-07-29T18:16:33.452Z,2.25
2022-07-29T18:19:19.585Z,2.33
2022-07-29T18:22:07.345Z,2.90
2022-07-29T18:24:53.489Z,2.95
2022-07-29T18:27:39.856Z,3.05
2022-07-29T18:30:26.695Z,2.90
2022-07-29T18:33:21.708Z,3.80
2022-07-29T18:36:11.459Z,3.53
2022-07-29T18:38:58.316Z,2.83
2022-07-29T18:41:50.350Z,2.28
2022-07-29T18:44:43.776Z,4.00
2022-07-29T18:47:36.733Z,2.97
2022-07-29T18:50:29.647Z,2.47
2022-07-29T18:53:16.266Z,2.05
2022-07-29T18:56:04.548Z,2.30
2022-07-29T18:58:50.766Z,2.03
2022-07-29T19:01:37.882Z,2.20
2022-07-29T19:04:24.138Z,2.95
2022-07-29T19:07:10.389Z,3.17
2022-07-29T19:09:56.435Z,2.65
2022-07-29T19:12:42.465Z,3.05
2022-07-29T19:15:28.788Z,2.35
2022-07-29T19:18:14.831Z,2.83
2022-07-29T19:21:01.032Z,2.70
2022-07-29T19:24:05.220Z,3.63
2022-07-29T19:26:54.458Z,3.47
2022-07-29T19:29:40.748Z,2.63
2022-07-29T19:32:29.849Z,2.63
2022-07-29T19:35:25.229Z,3.30
2022-07-29T19:38:12.190Z,2.70
2022-07-29T19:40:58.630Z,2.83
2022-07-29T19:43:51.442Z,2.70
2022-07-29T19:46:42.718Z,2.50
2022-07-29T19:49:29.220Z,2.80
2022-07-29T19:52:15.700Z,2.88
2022-07-29T19:55:07.379Z,2.90
2022-07-29T19:57:54.591Z,3.00
2022-07-29T20:00:41.768Z,2.83
2022-07-29T20:03:30.195Z,4.35
2022-07-29T20:06:16.479Z,2.88
2022-07-29T20:09:05.678Z,2.60
2022-07-29T20:11:51.851Z,2.78
2022-07-29T20:14:38.393Z,2.78
2022-07-29T20:17:25.828Z,2.85
2022-07-29T20:20:12.392Z,3.35
2022-07-29T20:22:59.342Z,2.80
2022-07-29T20:25:45.832Z,3.25
2022-07-29T20:28:31.783Z,2.90
2022-07-29T20:31:18.899Z,2.80
2022-07-29T20:34:06.241Z,2.85
2022-07-29T20:36:52.264Z,3.22
2022-07-29T20:39:39.075Z,3.33
2022-07-29T20:42:25.264Z,2.97
2022-07-29T20:45:11.789Z,3.55
2022-07-29T20:47:58.734Z,3.15
2022-07-29T20:50:46.241Z,3.53
2022-07-29T20:53:33.863Z,3.10
2022-07-29T20:56:20.212Z,3.05
2022-07-29T20:59:06.324Z,3.42
2022-07-29T21:01:57.592Z,3.40
2022-07-29T21:04:46.116Z,3.83
2022-07-29T21:07:32.137Z,3.22
2022-07-29T21:10:20.841Z,3.90
2022-07-29T21:13:09.562Z,3.45
2022-07-29T21:16:02.609Z,3.50
2022-07-29T21:18:51.096Z,3.70
2022-07-29T21:21:37.442Z,3.13
2022-07-29T21:24:24.861Z,3.63
2022-07-29T21:27:29.313Z,3.72
2022-07-29T21:33:03.353Z,3.20
2022-07-29T21:38:56.629Z,3.40
2022-07-29T21:41:42.952Z,2.80
2022-07-29T21:44:31.336Z,3.13
2022-07-29T21:47:19.474Z,3.53
2022-07-29T21:50:06.721Z,4.57
2022-07-29T21:52:52.802Z,3.53
2022-07-29T21:55:41.979Z,3.03
2022-07-29T21:58:30.877Z,4.05
2022-07-29T22:01:20.183Z,3.35
2022-07-29T22:04:06.649Z,4.00
2022-07-29T22:06:52.844Z,3.28
2022-07-29T22:09:39.328Z,3.30
2022-07-29T22:12:56.475Z,4.13
2022-07-29T22:15:47.080Z,3.50
2022-07-29T22:18:33.633Z,2.80
2022-07-29T22:21:19.713Z,2.67
2022-07-29T22:24:06.154Z,3.88
2022-07-29T22:27:02.361Z,2.80
2022-07-29T22:29:48.550Z,4.25
2022-07-29T22:32:41.538Z,3.03
2022-07-29T22:35:28.127Z,2.60
2022-07-29T22:38:17.665Z,2.50
2022-07-29T22:41:04.291Z,2.70
2022-07-29T22:43:50.740Z,2.72
2022-07-29T22:46:36.931Z,2.50
2022-07-29T22:49:22.942Z,2.50
2022-07-29T22:52:09.953Z,2.95
2022-07-29T22:54:55.946Z,2.45
2022-07-29T22:57:42.215Z,3.00
2022-07-29T23:00:28.331Z,3.30
2022-07-29T23:03:14.325Z,3.20
2022-07-29T23:06:09.043Z,3.30
2022-07-29T23:08:55.252Z,3.10
2022-07-29T23:11:41.167Z,3.10
2022-07-29T23:14:27.304Z,3.20
2022-07-29T23:17:13.646Z,3.13
2022-07-29T23:20:00.805Z,2.83
2022-07-29T23:22:47.541Z,2.60
2022-07-29T23:25:33.423Z,3.63
2022-07-29T23:28:19.652Z,2.80
2022-07-29T23:31:05.947Z,3.17
2022-07-29T23:33:51.966Z,3.40
2022-07-29T23:36:37.922Z,2.90
2022-07-29T23:39:24.306Z,2.78
2022-07-29T23:42:10.614Z,3.30
2022-07-29T23:44:56.683Z,3.05
2022-07-29T23:47:43.449Z,2.63
2022-07-29T23:50:29.359Z,2.67
2022-07-29T23:53:15.463Z,3.28
2022-07-29T23:56:01.349Z,3.00
2022-07-29T23:58:47.918Z,3.63
